createdAt,value
2018-09-06T00:01:17.261Z,27.70
2018-09-06T00:03:46.232Z,26.53
2018-09-06T00:06:15.273Z,33.40
2018-09-06T00:08:44.090Z,28.83
2018-09-06T00:11:12.918Z,31.07
2018-09-06T00:13:41.825Z,29.37
2018-09-06T00:16:10.783Z,29.27
2018-09-06T00:18:39.923Z,32.50
2018-09-06T00:21:08.629Z,28.70
2018-09-06T00:23:38.178Z,31.73
2018-09-06T00:26:06.972Z,28.73
2018-09-06T00:28:35.877Z,29.73
2018-09-06T00:31:04.682Z,30.83
2018-09-06T00:33:33.419Z,29.07
2018-09-06T00:36:03.194Z,30.97
2018-09-06T00:38:32.581Z,30.80
2018-09-06T00:41:01.445Z,30.80
2018-09-06T00:43:30.302Z,33.43
2018-09-06T00:45:59.182Z,33.00
2018-09-06T00:48:28.637Z,30.47
2018-09-06T00:50:58.177Z,33.60
2018-09-06T00:53:27.972Z,30.20
2018-09-06T00:55:56.833Z,34.17
2018-09-06T00:58:25.626Z,33.13
2018-09-06T01:00:54.483Z,35.17
2018-09-06T01:03:23.582Z,30.63
2018-09-06T01:05:52.640Z,34.10
2018-09-06T01:08:21.464Z,31.43
2018-09-06T01:10:51.145Z,34.00
2018-09-06T01:13:20.004Z,32.33
2018-09-06T01:15:48.861Z,34.90
2018-09-06T01:18:17.844Z,38.00
2018-09-06T01:20:46.861Z,32.70
2018-09-06T01:23:16.496Z,34.17
2018-09-06T01:25:48.639Z,32.50
2018-09-06T01:28:19.352Z,32.00
2018-09-06T01:30:48.204Z,37.50
2018-09-06T01:33:17.141Z,37.43
2018-09-06T01:35:51.179Z,35.93
2018-09-06T01:38:20.168Z,38.03
2018-09-06T01:40:49.079Z,38.40
2018-09-06T01:43:18.452Z,32.00
2018-09-06T01:45:47.300Z,45.37
2018-09-06T01:48:16.370Z,35.87
2018-09-06T01:50:45.337Z,38.33
2018-09-06T01:53:14.141Z,36.43
2018-09-06T01:55:43.704Z,41.90
2018-09-06T01:58:12.593Z,36.40
2018-09-06T02:00:41.488Z,40.60
2018-09-06T02:03:10.255Z,40.43
2018-09-06T02:05:39.059Z,36.03
2018-09-06T02:08:08.480Z,39.03
2018-09-06T02:10:37.209Z,34.17
2018-09-06T02:13:06.293Z,43.20
2018-09-06T02:15:35.030Z,43.53
2018-09-06T02:18:03.949Z,44.10
2018-09-06T02:20:32.888Z,43.10
2018-09-06T02:23:01.568Z,39.47
2018-09-06T02:25:32.229Z,41.27
2018-09-06T02:28:01.210Z,47.80
2018-09-06T02:30:30.212Z,46.00
2018-09-06T02:32:59.112Z,46.37
2018-09-06T02:35:27.947Z,43.50
2018-09-06T02:37:56.910Z,51.23
2018-09-06T02:40:30.906Z,45.30
2018-09-06T02:42:59.805Z,46.60
2018-09-06T02:45:28.542Z,47.03
2018-09-06T02:47:57.358Z,48.13
2018-09-06T02:50:31.457Z,49.57
2018-09-06T02:53:00.407Z,48.00
2018-09-06T02:55:30.010Z,47.00
2018-09-06T02:57:59.598Z,44.20
2018-09-06T03:00:33.741Z,42.40
2018-09-06T03:03:02.724Z,42.00
2018-09-06T03:05:31.705Z,46.27
2018-09-06T03:08:01.709Z,44.30
2018-09-06T03:10:36.598Z,49.07
2018-09-06T03:13:05.384Z,49.20
2018-09-06T03:15:34.936Z,48.50
2018-09-06T03:18:04.337Z,47.07
2018-09-06T03:20:33.389Z,49.80
2018-09-06T03:23:02.874Z,50.57
2018-09-06T03:25:31.662Z,58.27
2018-09-06T03:28:00.576Z,58.07
2018-09-06T03:30:29.401Z,63.20
2018-09-06T03:32:58.562Z,60.07
2018-09-06T03:35:28.127Z,52.90
2018-09-06T03:37:56.960Z,48.20
2018-09-06T03:40:25.733Z,44.30
2018-09-06T03:42:54.657Z,47.43
2018-09-06T03:45:23.511Z,51.10
2018-09-06T03:47:53.099Z,43.73
2018-09-06T03:50:21.874Z,45.33
2018-09-06T03:52:50.757Z,49.97
2018-09-06T03:55:19.617Z,55.13
2018-09-06T03:57:48.538Z,54.80
2018-09-06T04:00:17.380Z,49.77
2018-09-06T04:02:46.274Z,53.20
2018-09-06T04:05:15.954Z,48.40
2018-09-06T04:07:45.436Z,41.03
2018-09-06T04:10:15.028Z,45.13
2018-09-06T04:12:43.790Z,42.63
2018-09-06T04:15:13.382Z,49.80
2018-09-06T04:17:42.483Z,51.97
2018-09-06T04:20:11.261Z,53.30
2018-09-06T04:22:43.720Z,50.40
2018-09-06T04:25:12.513Z,48.70
2018-09-06T04:27:41.444Z,48.57
2018-09-06T04:30:16.253Z,48.30
2018-09-06T04:32:45.952Z,45.10
2018-09-06T04:35:14.879Z,48.30
2018-09-06T04:37:43.674Z,49.43
2018-09-06T04:40:12.510Z,57.00
2018-09-06T04:42:41.330Z,58.87
2018-09-06T04:45:10.205Z,51.23
2018-09-06T04:47:39.178Z,63.43
2018-09-06T04:50:08.291Z,59.80
2018-09-06T04:52:37.236Z,53.40
2018-09-06T04:55:06.149Z,55.50
2018-09-06T04:57:35.040Z,48.67
2018-09-06T05:00:03.934Z,49.27
2018-09-06T05:02:32.660Z,47.57
2018-09-06T05:05:01.668Z,44.63
2018-09-06T05:07:30.569Z,44.17
2018-09-06T05:09:59.501Z,48.20
2018-09-06T05:12:28.569Z,45.07
2018-09-06T05:14:58.066Z,50.07
2018-09-06T05:17:26.800Z,47.73
2018-09-06T05:19:56.292Z,58.93
2018-09-06T05:22:25.056Z,43.37
2018-09-06T05:24:54.524Z,40.90
2018-09-06T05:27:23.351Z,39.77
2018-09-06T05:29:52.135Z,39.80
2018-09-06T05:32:21.139Z,37.80
2018-09-06T05:34:50.033Z,40.63
2018-09-06T05:37:18.884Z,37.13
2018-09-06T05:39:47.788Z,40.20
2018-09-06T05:42:16.957Z,42.10
2018-09-06T05:44:45.821Z,45.93
2018-09-06T05:47:15.473Z,39.80
2018-09-06T05:49:44.998Z,44.87
2018-09-06T05:52:14.454Z,40.60
2018-09-06T05:54:44.052Z,40.53
2018-09-06T05:57:12.938Z,39.70
2018-09-06T05:59:42.409Z,41.40
2018-09-06T06:02:11.798Z,42.07
2018-09-06T06:04:40.659Z,44.07
2018-09-06T06:07:09.414Z,38.90
2018-09-06T06:09:38.350Z,43.13
2018-09-06T06:12:07.226Z,40.30
2018-09-06T06:14:36.701Z,39.47
2018-09-06T06:17:05.554Z,39.07
2018-09-06T06:19:34.460Z,40.20
2018-09-06T06:22:03.434Z,36.53
2018-09-06T06:24:32.433Z,32.83
2018-09-06T06:27:01.319Z,33.10
2018-09-06T06:29:30.893Z,34.07
2018-09-06T06:32:00.422Z,31.93
2018-09-06T06:34:29.709Z,32.83
2018-09-06T06:36:59.089Z,29.53
2018-09-06T06:39:28.233Z,30.63
2018-09-06T06:41:57.006Z,25.57
2018-09-06T06:44:27.290Z,29.23
2018-09-06T06:46:56.745Z,27.93
2018-09-06T06:49:26.317Z,30.17
2018-09-06T06:51:55.129Z,29.27
2018-09-06T06:54:24.054Z,29.17
2018-09-06T06:56:52.972Z,28.10
2018-09-06T06:59:21.793Z,31.87
2018-09-06T07:01:51.690Z,28.97
2018-09-06T07:04:20.664Z,27.27
2018-09-06T07:06:49.613Z,27.83
2018-09-06T07:09:18.350Z,27.30
2018-09-06T07:11:47.173Z,31.37
2018-09-06T07:14:15.933Z,24.97
2018-09-06T07:16:45.426Z,28.87
2018-09-06T07:19:14.232Z,28.07
2018-09-06T07:21:42.899Z,23.60
2018-09-06T07:24:12.006Z,25.50
2018-09-06T07:26:40.954Z,21.80
2018-09-06T07:29:10.254Z,24.23
2018-09-06T07:31:39.732Z,24.50
2018-09-06T07:34:09.498Z,22.80
2018-09-06T07:36:39.039Z,23.57
2018-09-06T07:39:09.298Z,25.20
2018-09-06T07:41:38.129Z,26.17
2018-09-06T07:44:07.205Z,20.90
2018-09-06T07:46:37.261Z,23.50
2018-09-06T07:49:07.606Z,21.17
2018-09-06T07:51:37.016Z,19.37
2018-09-06T07:54:05.785Z,18.17
2018-09-06T07:56:36.392Z,19.27
2018-09-06T07:59:05.826Z,22.50
2018-09-06T08:01:34.791Z,17.53
2018-09-06T08:04:03.723Z,18.43
2018-09-06T08:06:32.508Z,17.13
2018-09-06T08:09:01.262Z,16.20
2018-09-06T08:11:30.135Z,15.57
2018-09-06T08:13:59.060Z,17.30
2018-09-06T08:16:27.886Z,15.90
2018-09-06T08:18:56.675Z,14.80
2018-09-06T08:21:25.469Z,15.23
2018-09-06T08:23:54.308Z,14.20
2018-09-06T08:26:24.014Z,13.20
2018-09-06T08:28:52.789Z,12.00
2018-09-06T08:31:22.097Z,12.73
2018-09-06T08:33:51.819Z,12.90
2018-09-06T08:36:21.034Z,12.40
2018-09-06T08:38:49.830Z,12.40
2018-09-06T08:41:18.653Z,12.97
2018-09-06T08:43:47.405Z,12.47
2018-09-06T08:46:16.289Z,12.23
2018-09-06T08:48:45.093Z,12.73
2018-09-06T08:51:13.885Z,12.33
2018-09-06T08:53:42.668Z,11.87
2018-09-06T08:56:11.609Z,12.20
2018-09-06T08:58:41.054Z,12.50
2018-09-06T09:01:43.795Z,12.17
2018-09-06T09:04:12.500Z,11.37
2018-09-06T09:06:41.189Z,10.77
2018-09-06T09:09:13.280Z,11.77
2018-09-06T09:11:42.155Z,10.43
2018-09-06T09:14:11.190Z,10.20
2018-09-06T09:16:40.157Z,10.50
2018-09-06T09:19:09.098Z,11.60
2018-09-06T09:21:37.917Z,11.50
2018-09-06T09:24:07.160Z,11.83
2018-09-06T09:26:36.259Z,11.80
2018-09-06T09:29:05.599Z,12.40
2018-09-06T09:31:34.523Z,10.90
2018-09-06T09:34:04.013Z,12.60
2018-09-06T09:36:33.240Z,12.30
2018-09-06T09:39:02.200Z,12.40
2018-09-06T09:41:31.854Z,12.37
2018-09-06T09:44:00.700Z,12.37
2018-09-06T09:48:57.477Z,11.73
2018-09-06T09:51:26.293Z,12.70
2018-09-06T09:53:55.131Z,11.03
2018-09-06T09:56:23.921Z,10.70
2018-09-06T09:58:53.272Z,10.67
2018-09-06T10:01:22.140Z,10.03
2018-09-06T10:03:56.053Z,8.73
2018-09-06T10:06:30.440Z,8.90
2018-09-06T10:09:04.153Z,8.83
2018-09-06T10:11:33.040Z,8.73
2018-09-06T10:14:02.053Z,7.90
2018-09-06T10:16:31.066Z,6.33
2018-09-06T10:18:59.784Z,6.80
2018-09-06T10:21:29.696Z,5.70
2018-09-06T10:23:58.961Z,5.70
2018-09-06T10:26:28.613Z,6.30
2018-09-06T10:28:57.512Z,6.30
2018-09-06T10:31:26.561Z,7.70
2018-09-06T10:33:55.836Z,5.40
2018-09-06T10:36:24.776Z,6.00
2018-09-06T10:38:53.563Z,8.13
2018-09-06T10:41:22.274Z,6.80
2018-09-06T10:43:51.035Z,6.43
2018-09-06T10:46:19.901Z,7.07
2018-09-06T10:48:48.689Z,5.83
2018-09-06T10:51:17.415Z,6.07
2018-09-06T10:53:46.483Z,5.80
2018-09-06T10:56:15.438Z,6.10
2018-09-06T10:58:44.174Z,6.40
2018-09-06T11:01:18.166Z,6.30
2018-09-06T11:03:47.719Z,5.47
2018-09-06T11:06:18.174Z,6.30
2018-09-06T11:08:47.178Z,5.67
2018-09-06T11:11:16.068Z,5.90
2018-09-06T11:13:44.849Z,6.47
2018-09-06T11:16:14.266Z,6.80
2018-09-06T11:18:42.917Z,6.73
2018-09-06T11:21:11.807Z,6.70
2018-09-06T11:23:41.236Z,7.20
2018-09-06T11:26:09.985Z,6.47
2018-09-06T11:28:38.724Z,7.57
2018-09-06T11:31:07.499Z,7.00
2018-09-06T11:33:36.244Z,7.53
2018-09-06T11:36:05.086Z,8.13
2018-09-06T11:38:34.527Z,7.90
2018-09-06T11:41:19.717Z,7.97
2018-09-06T11:43:49.174Z,8.27
2018-09-06T11:46:18.634Z,9.17
2018-09-06T11:48:47.392Z,9.33
2018-09-06T11:51:16.860Z,9.30
2018-09-06T11:53:45.612Z,17.27
2018-09-06T11:56:14.393Z,8.67
2018-09-06T11:58:43.217Z,9.57
2018-09-06T12:01:12.091Z,13.07
2018-09-06T12:03:40.953Z,8.40
2018-09-06T12:06:09.982Z,9.90
2018-09-06T12:08:38.750Z,9.27
2018-09-06T12:11:07.636Z,10.93
2018-09-06T12:13:36.387Z,8.77
2018-09-06T12:16:05.177Z,8.70
2018-09-06T12:18:35.157Z,8.90
2018-09-06T12:21:04.743Z,10.07
2018-09-06T12:23:34.116Z,10.77
2018-09-06T12:26:02.913Z,9.50
2018-09-06T12:28:32.360Z,9.53
2018-09-06T12:31:01.142Z,8.87
2018-09-06T12:33:30.262Z,8.63
2018-09-06T12:36:00.211Z,11.60
2018-09-06T12:38:29.186Z,8.83
2018-09-06T12:40:58.056Z,10.57
2018-09-06T12:43:26.877Z,13.07
2018-09-06T12:45:55.854Z,7.77
2018-09-06T12:48:24.711Z,10.50
2018-09-06T12:50:53.850Z,8.47
2018-09-06T12:53:22.840Z,7.60
2018-09-06T12:55:52.585Z,8.40
2018-09-06T12:58:22.056Z,10.03
2018-09-06T13:00:52.647Z,8.10
2018-09-06T13:03:21.566Z,8.53
2018-09-06T13:05:50.908Z,14.67
2018-09-06T13:08:19.921Z,12.23
2018-09-06T13:10:49.007Z,12.70
2018-09-06T13:13:17.863Z,16.40
2018-09-06T13:15:46.718Z,15.77
2018-09-06T13:18:15.657Z,12.43
2018-09-06T13:20:44.585Z,12.47
2018-09-06T13:23:13.501Z,15.60
2018-09-06T13:25:43.409Z,16.83
2018-09-06T13:28:12.450Z,25.23
2018-09-06T13:30:41.280Z,28.43
2018-09-06T13:33:10.841Z,75.90
2018-09-06T13:35:39.681Z,48.43
2018-09-06T13:38:08.521Z,20.40
2018-09-06T13:40:37.342Z,13.27
2018-09-06T13:43:06.902Z,11.10
2018-09-06T13:45:35.891Z,9.50
2018-09-06T13:48:04.934Z,7.27
2018-09-06T13:50:33.911Z,11.60
2018-09-06T13:53:02.681Z,10.10
2018-09-06T13:58:40.310Z,11.17
2018-09-06T14:01:09.400Z,7.77
2018-09-06T14:03:38.351Z,10.10
2018-09-06T14:06:07.109Z,10.67
2018-09-06T14:08:35.972Z,10.63
2018-09-06T14:11:05.052Z,12.80
2018-09-06T14:13:35.715Z,13.07
2018-09-06T14:16:05.348Z,14.03
2018-09-06T14:18:34.802Z,10.50
2018-09-06T14:21:03.489Z,9.80
2018-09-06T14:23:50.131Z,11.77
2018-09-06T14:26:19.040Z,10.70
2018-09-06T14:28:47.820Z,12.90
2018-09-06T14:31:17.284Z,10.80
2018-09-06T14:33:46.019Z,13.93
2018-09-06T14:36:14.769Z,12.20
2018-09-06T14:38:43.815Z,12.37
2018-09-06T14:41:13.285Z,10.40
2018-09-06T14:43:42.078Z,14.33
2018-09-06T14:46:11.411Z,12.03
2018-09-06T14:48:41.007Z,12.70
2018-09-06T14:51:09.769Z,10.30
2018-09-06T14:53:39.179Z,12.10
2018-09-06T14:56:10.068Z,11.10
2018-09-06T14:58:39.158Z,12.90
2018-09-06T15:01:08.385Z,11.37
2018-09-06T15:03:37.254Z,12.07
2018-09-06T15:06:07.844Z,14.70
2018-09-06T15:08:37.344Z,10.50
2018-09-06T15:11:06.959Z,12.70
2018-09-06T15:13:36.581Z,11.23
2018-09-06T15:16:06.382Z,13.60
2018-09-06T15:18:35.336Z,10.97
2018-09-06T15:21:04.120Z,11.90
2018-09-06T15:23:32.993Z,11.87
2018-09-06T15:26:01.759Z,11.40
2018-09-06T15:28:30.804Z,11.97
2018-09-06T15:31:00.228Z,11.50
2018-09-06T15:33:29.070Z,12.33
2018-09-06T15:35:57.943Z,11.10
2018-09-06T15:38:26.933Z,12.83
2018-09-06T15:40:56.480Z,12.50
2018-09-06T15:43:25.968Z,12.33
2018-09-06T15:46:01.526Z,13.87
2018-09-06T15:48:30.325Z,14.37
2018-09-06T15:50:59.327Z,14.40
2018-09-06T15:53:28.128Z,15.03
2018-09-06T15:55:57.580Z,15.20
2018-09-06T15:58:26.391Z,17.23
2018-09-06T16:00:55.799Z,14.43
2018-09-06T16:03:25.275Z,15.07
2018-09-06T16:05:54.877Z,14.27
2018-09-06T16:08:24.215Z,14.83
2018-09-06T16:10:53.999Z,14.13
2018-09-06T16:13:23.652Z,15.40
2018-09-06T16:15:53.051Z,20.23
2018-09-06T16:18:22.616Z,14.07
2018-09-06T16:20:53.696Z,18.83
2018-09-06T16:23:22.613Z,13.37
2018-09-06T16:25:51.428Z,14.23
2018-09-06T16:28:20.767Z,15.13
2018-09-06T16:30:49.622Z,16.10
2018-09-06T16:33:18.728Z,11.40
2018-09-06T16:35:47.526Z,14.53
2018-09-06T16:38:17.093Z,10.27
2018-09-06T16:40:46.738Z,13.00
2018-09-06T16:43:15.548Z,11.73
2018-09-06T16:45:44.553Z,9.67
2018-09-06T16:48:14.200Z,14.50
2018-09-06T16:50:43.036Z,9.63
2018-09-06T16:53:11.982Z,8.87
2018-09-06T16:55:40.862Z,10.10
2018-09-06T16:58:10.349Z,9.87
2018-09-06T17:00:39.192Z,12.67
2018-09-06T17:03:07.929Z,13.93
2018-09-06T17:05:36.749Z,13.50
2018-09-06T17:08:08.901Z,13.67
2018-09-06T17:10:37.805Z,13.37
2018-09-06T17:13:06.814Z,15.63
2018-09-06T17:15:35.763Z,16.30
2018-09-06T17:18:04.671Z,16.53
2018-09-06T17:20:33.481Z,13.87
2018-09-06T17:23:02.236Z,20.40
2018-09-06T17:25:31.785Z,15.23
2018-09-06T17:28:00.593Z,15.40
2018-09-06T17:30:29.550Z,13.13
2018-09-06T17:32:58.329Z,16.83
2018-09-06T17:35:27.142Z,11.97
2018-09-06T17:37:56.105Z,11.40
2018-09-06T17:40:25.760Z,13.17
2018-09-06T17:42:55.456Z,12.37
2018-09-06T17:45:24.299Z,12.50
2018-09-06T17:47:53.297Z,11.03
2018-09-06T17:50:22.204Z,13.60
2018-09-06T17:52:51.675Z,11.37
2018-09-06T17:55:20.970Z,10.73
2018-09-06T17:57:49.801Z,11.97
2018-09-06T18:00:20.222Z,13.03
2018-09-06T18:02:49.975Z,12.40
2018-09-06T18:05:18.886Z,10.50
2018-09-06T18:07:47.790Z,13.17
2018-09-06T18:10:16.682Z,12.17
2018-09-06T18:12:45.656Z,14.80
2018-09-06T18:15:14.486Z,13.80
2018-09-06T18:17:44.403Z,13.40
2018-09-06T18:20:13.685Z,15.17
2018-09-06T18:22:43.339Z,14.37
2018-09-06T18:25:15.625Z,12.63
2018-09-06T18:27:45.164Z,15.20
2018-09-06T18:30:14.734Z,16.00
2018-09-06T18:32:44.226Z,21.70
2018-09-06T18:35:13.076Z,21.53
2018-09-06T18:37:41.980Z,18.47
2018-09-06T18:40:10.966Z,18.10
2018-09-06T18:42:40.467Z,34.23
2018-09-06T18:45:09.357Z,20.57
2018-09-06T18:47:38.627Z,36.70
2018-09-06T18:50:08.215Z,29.60
2018-09-06T18:52:37.811Z,23.53
2018-09-06T18:55:06.777Z,21.80
2018-09-06T18:57:35.767Z,25.57
2018-09-06T19:00:04.878Z,33.83
2018-09-06T19:02:33.897Z,26.43
2018-09-06T19:05:02.747Z,30.30
2018-09-06T19:07:32.114Z,23.77
2018-09-06T19:10:01.143Z,26.20
2018-09-06T19:12:30.068Z,26.87
2018-09-06T19:14:59.630Z,25.20
2018-09-06T19:17:28.457Z,22.70
2018-09-06T19:19:57.444Z,27.97
2018-09-06T19:22:26.314Z,22.13
2018-09-06T19:24:56.021Z,29.23
2018-09-06T19:27:24.905Z,27.10
2018-09-06T19:29:53.846Z,25.70
2018-09-06T19:32:23.109Z,31.53
2018-09-06T19:34:52.020Z,28.53
2018-09-06T19:37:20.901Z,31.33
2018-09-06T19:39:49.689Z,44.93
2018-09-06T19:42:18.510Z,37.97
2018-09-06T19:44:47.907Z,22.53
2018-09-06T19:47:17.017Z,23.63
2018-09-06T19:49:45.924Z,29.40
2018-09-06T19:52:14.828Z,41.73
2018-09-06T19:54:43.660Z,30.90
2018-09-06T19:57:13.275Z,23.03
2018-09-06T19:59:42.769Z,29.83
2018-09-06T20:02:11.513Z,26.47
2018-09-06T20:04:40.421Z,36.43
2018-09-06T20:07:09.339Z,26.20
2018-09-06T20:09:39.946Z,24.20
2018-09-06T20:12:09.394Z,24.83
2018-09-06T20:14:38.905Z,29.40
2018-09-06T20:17:07.751Z,33.67
2018-09-06T20:19:36.815Z,31.37
2018-09-06T20:22:07.821Z,40.30
2018-09-06T20:24:37.640Z,23.80
2018-09-06T20:27:06.566Z,33.30
2018-09-06T20:29:35.356Z,30.17
2018-09-06T20:32:04.145Z,29.43
2018-09-06T20:34:32.927Z,24.57
2018-09-06T20:37:01.974Z,21.70
2018-09-06T20:39:31.568Z,25.30
2018-09-06T20:42:01.473Z,29.57
2018-09-06T20:44:30.302Z,31.10
2018-09-06T20:47:00.229Z,27.43
2018-09-06T20:49:29.849Z,24.90
2018-09-06T20:51:58.621Z,26.70
2018-09-06T20:54:27.498Z,29.37
2018-09-06T20:56:56.303Z,32.47
2018-09-06T20:59:25.250Z,29.00
2018-09-06T21:01:54.625Z,30.97
2018-09-06T21:04:24.163Z,39.50
2018-09-06T21:06:53.055Z,37.27
2018-09-06T21:09:22.153Z,33.83
2018-09-06T21:11:50.904Z,35.10
2018-09-06T21:14:19.666Z,36.90
2018-09-06T21:16:48.460Z,31.30
2018-09-06T21:19:17.432Z,33.87
2018-09-06T21:21:46.280Z,37.17
2018-09-06T21:24:15.533Z,45.03
2018-09-06T21:26:44.951Z,36.77
2018-09-06T21:29:14.236Z,36.40
2018-09-06T21:31:43.290Z,42.13
2018-09-06T21:34:12.173Z,43.43
2018-09-06T21:36:41.168Z,39.10
2018-09-06T21:39:12.687Z,45.43
2018-09-06T21:41:42.820Z,47.40
2018-09-06T21:44:11.754Z,45.50
2018-09-06T21:46:41.465Z,56.47
2018-09-06T21:49:10.548Z,55.33
2018-09-06T21:51:39.517Z,44.23
2018-09-06T21:54:08.985Z,42.30
2018-09-06T21:56:37.832Z,46.00
2018-09-06T21:59:06.870Z,40.47
2018-09-06T22:01:35.700Z,42.73
2018-09-06T22:04:06.626Z,43.17
2018-09-06T22:06:36.359Z,40.80
2018-09-06T22:09:08.215Z,40.70
2018-09-06T22:11:38.112Z,34.80
2018-09-06T22:14:07.384Z,35.80
2018-09-06T22:16:36.744Z,38.77
2018-09-06T22:19:05.763Z,34.63
2018-09-06T22:21:34.671Z,31.97
2018-09-06T22:24:03.544Z,35.30
2018-09-06T22:26:33.051Z,38.17
2018-09-06T22:29:01.767Z,37.83
2018-09-06T22:31:30.805Z,42.00
2018-09-06T22:33:59.746Z,33.53
2018-09-06T22:36:29.004Z,34.13
2018-09-06T22:38:57.923Z,34.73
2018-09-06T22:41:27.155Z,38.20
2018-09-06T22:43:55.971Z,35.70
2018-09-06T22:46:25.003Z,36.70
2018-09-06T22:48:54.117Z,37.80
2018-09-06T22:51:22.941Z,39.60
2018-09-06T22:53:51.886Z,45.00
2018-09-06T22:56:20.806Z,45.67
2018-09-06T22:58:49.605Z,45.87
2018-09-06T23:01:18.562Z,40.57
2018-09-06T23:03:51.697Z,41.90
2018-09-06T23:06:20.903Z,41.57
2018-09-06T23:08:50.177Z,39.37
2018-09-06T23:11:19.033Z,34.50
2018-09-06T23:13:47.841Z,31.90
2018-09-06T23:16:17.374Z,32.37
2018-09-06T23:18:46.236Z,30.40
2018-09-06T23:21:15.115Z,28.30
2018-09-06T23:23:43.884Z,33.27
2018-09-06T23:26:13.052Z,26.57
2018-09-06T23:28:41.943Z,26.70
2018-09-06T23:31:10.863Z,24.10
2018-09-06T23:33:39.643Z,25.23
2018-09-06T23:36:08.632Z,22.97
2018-09-06T23:38:37.877Z,26.10
2018-09-06T23:41:06.754Z,26.73
2018-09-06T23:43:35.669Z,22.77
2018-09-06T23:46:04.466Z,27.23
2018-09-06T23:48:33.403Z,25.57
2018-09-06T23:51:02.206Z,26.60
2018-09-06T23:53:31.578Z,24.93
2018-09-06T23:56:00.586Z,26.53
2018-09-06T23:58:29.594Z,25.43
